sensor_id;sensor_type;location;lat;lon;timestamp;P1;durP1;ratioP1;P2;durP2;ratioP2
50379;SDS011;37474;59.468;18.040;2023-03-30T00:01:34;6.13;;;2.75;;
50379;SDS011;37474;59.468;18.040;2023-03-30T00:04:05;8.48;;;3.00;;
50379;SDS011;37474;59.468;18.040;2023-03-30T00:06:38;8.23;;;2.83;;
50379;SDS011;37474;59.468;18.040;2023-03-30T00:09:09;4.07;;;2.83;;
50379;SDS011;37474;59.468;18.040;2023-03-30T00:11:37;5.88;;;2.63;;
50379;SDS011;37474;59.468;18.040;2023-03-30T00:14:07;5.72;;;2.60;;
50379;SDS011;37474;59.468;18.040;2023-03-30T00:16:37;5.65;;;2.70;;
50379;SDS011;37474;59.468;18.040;2023-03-30T00:19:06;4.63;;;2.38;;
50379;SDS011;37474;59.468;18.040;2023-03-30T00:21:36;4.65;;;2.83;;
50379;SDS011;37474;59.468;18.040;2023-03-30T00:24:05;7.68;;;2.80;;
50379;SDS011;37474;59.468;18.040;2023-03-30T00:26:33;5.68;;;2.70;;
50379;SDS011;37474;59.468;18.040;2023-03-30T00:29:03;3.72;;;2.33;;
50379;SDS011;37474;59.468;18.040;2023-03-30T00:31:33;5.43;;;2.72;;
50379;SDS011;37474;59.468;18.040;2023-03-30T00:34:03;5.03;;;2.72;;
50379;SDS011;37474;59.468;18.040;2023-03-30T00:36:32;4.20;;;2.30;;
50379;SDS011;37474;59.468;18.040;2023-03-30T00:39:06;5.25;;;2.70;;
50379;SDS011;37474;59.468;18.040;2023-03-30T00:41:34;5.80;;;2.60;;
50379;SDS011;37474;59.468;18.040;2023-03-30T00:44:04;4.88;;;2.42;;
50379;SDS011;37474;59.468;18.040;2023-03-30T00:46:38;4.25;;;2.40;;
50379;SDS011;37474;59.468;18.040;2023-03-30T00:49:08;3.55;;;2.20;;
50379;SDS011;37474;59.468;18.040;2023-03-30T00:51:40;3.83;;;2.22;;
50379;SDS011;37474;59.468;18.040;2023-03-30T00:54:11;4.07;;;2.40;;
50379;SDS011;37474;59.468;18.040;2023-03-30T00:56:44;4.13;;;2.22;;
50379;SDS011;37474;59.468;18.040;2023-03-30T00:59:15;5.00;;;2.72;;
50379;SDS011;37474;59.468;18.040;2023-03-30T01:01:42;4.32;;;2.22;;
50379;SDS011;37474;59.468;18.040;2023-03-30T01:04:17;3.90;;;2.20;;
50379;SDS011;37474;59.468;18.040;2023-03-30T01:06:47;4.85;;;2.35;;
50379;SDS011;37474;59.468;18.040;2023-03-30T01:09:21;4.43;;;2.47;;
50379;SDS011;37474;59.468;18.040;2023-03-30T01:11:49;5.03;;;2.40;;
50379;SDS011;37474;59.468;18.040;2023-03-30T01:14:17;4.88;;;2.30;;
50379;SDS011;37474;59.468;18.040;2023-03-30T01:16:50;5.90;;;2.40;;
50379;SDS011;37474;59.468;18.040;2023-03-30T01:25:38;6.57;;;2.17;;
50379;SDS011;37474;59.468;18.040;2023-03-30T01:28:32;5.35;;;2.35;;
50379;SDS011;37474;59.468;18.040;2023-03-30T01:34:23;4.47;;;2.20;;
50379;SDS011;37474;59.468;18.040;2023-03-30T01:40:14;4.45;;;2.17;;
50379;SDS011;37474;59.468;18.040;2023-03-30T01:42:46;4.03;;;1.98;;
50379;SDS011;37474;59.468;18.040;2023-03-30T01:45:24;4.72;;;2.22;;
50379;SDS011;37474;59.468;18.040;2023-03-30T01:47:59;3.92;;;2.15;;
50379;SDS011;37474;59.468;18.040;2023-03-30T01:50:39;3.95;;;1.83;;
50379;SDS011;37474;59.468;18.040;2023-03-30T01:53:10;3.72;;;2.25;;
50379;SDS011;37474;59.468;18.040;2023-03-30T01:55:50;3.40;;;2.00;;
50379;SDS011;37474;59.468;18.040;2023-03-30T01:58:24;3.22;;;2.13;;
50379;SDS011;37474;59.468;18.040;2023-03-30T02:01:00;4.07;;;2.05;;
50379;SDS011;37474;59.468;18.040;2023-03-30T02:03:31;4.22;;;2.33;;
50379;SDS011;37474;59.468;18.040;2023-03-30T02:06:07;6.43;;;2.38;;
50379;SDS011;37474;59.468;18.040;2023-03-30T02:08:39;4.53;;;2.17;;
50379;SDS011;37474;59.468;18.040;2023-03-30T02:11:11;3.33;;;2.05;;
50379;SDS011;37474;59.468;18.040;2023-03-30T02:13:39;4.25;;;2.10;;
50379;SDS011;37474;59.468;18.040;2023-03-30T02:16:14;4.40;;;1.92;;
50379;SDS011;37474;59.468;18.040;2023-03-30T02:18:45;3.58;;;1.70;;
50379;SDS011;37474;59.468;18.040;2023-03-30T02:21:17;2.88;;;1.90;;
50379;SDS011;37474;59.468;18.040;2023-03-30T02:23:45;5.40;;;2.28;;
50379;SDS011;37474;59.468;18.040;2023-03-30T02:26:14;3.15;;;1.80;;
50379;SDS011;37474;59.468;18.040;2023-03-30T02:28:45;2.78;;;1.83;;
50379;SDS011;37474;59.468;18.040;2023-03-30T02:31:13;3.47;;;1.80;;
50379;SDS011;37474;59.468;18.040;2023-03-30T02:33:45;3.75;;;2.10;;
50379;SDS011;37474;59.468;18.040;2023-03-30T02:36:30;3.95;;;1.98;;
50379;SDS011;37474;59.468;18.040;2023-03-30T02:39:13;3.67;;;1.92;;
50379;SDS011;37474;59.468;18.040;2023-03-30T02:41:56;2.38;;;1.50;;
50379;SDS011;37474;59.468;18.040;2023-03-30T02:44:40;3.17;;;2.00;;
50379;SDS011;37474;59.468;18.040;2023-03-30T02:47:22;4.45;;;1.83;;
50379;SDS011;37474;59.468;18.040;2023-03-30T02:49:59;2.88;;;1.85;;
50379;SDS011;37474;59.468;18.040;2023-03-30T02:52:36;4.70;;;2.63;;
50379;SDS011;37474;59.468;18.040;2023-03-30T02:55:13;3.00;;;1.60;;
50379;SDS011;37474;59.468;18.040;2023-03-30T02:57:52;2.75;;;1.65;;
50379;SDS011;37474;59.468;18.040;2023-03-30T03:03:02;3.53;;;1.75;;
50379;SDS011;37474;59.468;18.040;2023-03-30T03:05:34;4.00;;;1.73;;
50379;SDS011;37474;59.468;18.040;2023-03-30T03:08:06;3.25;;;1.70;;
50379;SDS011;37474;59.468;18.040;2023-03-30T03:10:34;4.20;;;1.47;;
50379;SDS011;37474;59.468;18.040;2023-03-30T03:13:03;3.75;;;1.80;;
50379;SDS011;37474;59.468;18.040;2023-03-30T03:15:35;2.15;;;1.58;;
50379;SDS011;37474;59.468;18.040;2023-03-30T03:18:03;3.55;;;1.70;;
50379;SDS011;37474;59.468;18.040;2023-03-30T03:20:31;3.35;;;1.70;;
50379;SDS011;37474;59.468;18.040;2023-03-30T03:23:03;3.65;;;1.90;;
50379;SDS011;37474;59.468;18.040;2023-03-30T03:25:31;2.58;;;1.48;;
50379;SDS011;37474;59.468;18.040;2023-03-30T03:27:59;3.38;;;1.73;;
50379;SDS011;37474;59.468;18.040;2023-03-30T03:30:30;3.70;;;1.88;;
50379;SDS011;37474;59.468;18.040;2023-03-30T03:33:00;5.85;;;1.70;;
50379;SDS011;37474;59.468;18.040;2023-03-30T03:35:28;2.85;;;1.63;;
50379;SDS011;37474;59.468;18.040;2023-03-30T03:37:58;3.80;;;1.77;;
50379;SDS011;37474;59.468;18.040;2023-03-30T03:40:28;3.75;;;1.85;;
50379;SDS011;37474;59.468;18.040;2023-03-30T03:42:56;4.35;;;1.80;;
50379;SDS011;37474;59.468;18.040;2023-03-30T03:45:26;4.57;;;1.85;;
50379;SDS011;37474;59.468;18.040;2023-03-30T03:47:57;2.78;;;1.63;;
50379;SDS011;37474;59.468;18.040;2023-03-30T03:50:25;2.58;;;1.50;;
50379;SDS011;37474;59.468;18.040;2023-03-30T03:52:55;2.55;;;1.48;;
50379;SDS011;37474;59.468;18.040;2023-03-30T03:55:25;4.13;;;1.42;;
50379;SDS011;37474;59.468;18.040;2023-03-30T03:57:54;3.20;;;1.70;;
50379;SDS011;37474;59.468;18.040;2023-03-30T04:00:27;4.15;;;1.50;;
50379;SDS011;37474;59.468;18.040;2023-03-30T04:02:59;3.47;;;1.85;;
50379;SDS011;37474;59.468;18.040;2023-03-30T04:05:29;2.47;;;1.58;;
50379;SDS011;37474;59.468;18.040;2023-03-30T04:07:57;3.35;;;1.60;;
50379;SDS011;37474;59.468;18.040;2023-03-30T04:10:29;7.30;;;2.20;;
50379;SDS011;37474;59.468;18.040;2023-03-30T04:12:57;6.05;;;2.25;;
50379;SDS011;37474;59.468;18.040;2023-03-30T04:15:25;5.78;;;2.78;;
50379;SDS011;37474;59.468;18.040;2023-03-30T04:18:01;10.07;;;3.53;;
50379;SDS011;37474;59.468;18.040;2023-03-30T04:20:30;10.65;;;3.28;;
50379;SDS011;37474;59.468;18.040;2023-03-30T04:23:00;8.30;;;3.58;;
50379;SDS011;37474;59.468;18.040;2023-03-30T04:25:30;6.15;;;2.80;;
50379;SDS011;37474;59.468;18.040;2023-03-30T04:27:58;4.97;;;2.28;;
50379;SDS011;37474;59.468;18.040;2023-03-30T04:30:27;4.57;;;2.35;;
50379;SDS011;37474;59.468;18.040;2023-03-30T04:32:58;5.30;;;2.40;;
50379;SDS011;37474;59.468;18.040;2023-03-30T04:35:32;4.75;;;2.35;;
50379;SDS011;37474;59.468;18.040;2023-03-30T04:38:02;6.00;;;1.85;;
50379;SDS011;37474;59.468;18.040;2023-03-30T04:40:33;5.30;;;2.10;;
50379;SDS011;37474;59.468;18.040;2023-03-30T04:43:03;4.80;;;2.60;;
50379;SDS011;37474;59.468;18.040;2023-03-30T04:45:32;5.60;;;2.63;;
50379;SDS011;37474;59.468;18.040;2023-03-30T04:48:03;4.18;;;2.40;;
50379;SDS011;37474;59.468;18.040;2023-03-30T04:50:33;4.00;;;2.10;;
50379;SDS011;37474;59.468;18.040;2023-03-30T04:53:00;4.60;;;2.20;;
50379;SDS011;37474;59.468;18.040;2023-03-30T04:55:30;4.10;;;2.13;;
50379;SDS011;37474;59.468;18.040;2023-03-30T04:58:00;6.55;;;2.58;;
50379;SDS011;37474;59.468;18.040;2023-03-30T05:00:28;8.50;;;3.20;;
50379;SDS011;37474;59.468;18.040;2023-03-30T05:02:56;7.30;;;3.00;;
50379;SDS011;37474;59.468;18.040;2023-03-30T05:05:28;6.32;;;2.83;;
50379;SDS011;37474;59.468;18.040;2023-03-30T05:07:57;6.78;;;2.97;;
50379;SDS011;37474;59.468;18.040;2023-03-30T05:10:27;8.40;;;3.45;;
50379;SDS011;37474;59.468;18.040;2023-03-30T05:12:57;6.07;;;2.97;;
50379;SDS011;37474;59.468;18.040;2023-03-30T05:15:26;7.38;;;3.05;;
50379;SDS011;37474;59.468;18.040;2023-03-30T05:17:54;9.40;;;3.80;;
50379;SDS011;37474;59.468;18.040;2023-03-30T05:20:23;7.35;;;3.92;;
50379;SDS011;37474;59.468;18.040;2023-03-30T05:22:53;9.60;;;4.38;;
50379;SDS011;37474;59.468;18.040;2023-03-30T05:25:21;10.65;;;4.32;;
50379;SDS011;37474;59.468;18.040;2023-03-30T05:27:49;11.98;;;4.90;;
50379;SDS011;37474;59.468;18.040;2023-03-30T05:30:19;13.50;;;5.25;;
50379;SDS011;37474;59.468;18.040;2023-03-30T05:32:47;12.02;;;5.03;;
50379;SDS011;37474;59.468;18.040;2023-03-30T05:35:16;16.50;;;6.05;;
50379;SDS011;37474;59.468;18.040;2023-03-30T05:37:44;16.50;;;6.90;;
50379;SDS011;37474;59.468;18.040;2023-03-30T05:40:15;13.25;;;6.10;;
50379;SDS011;37474;59.468;18.040;2023-03-30T05:42:48;17.27;;;6.55;;
50379;SDS011;37474;59.468;18.040;2023-03-30T05:45:16;9.43;;;4.30;;
50379;SDS011;37474;59.468;18.040;2023-03-30T05:47:44;12.38;;;5.70;;
50379;SDS011;37474;59.468;18.040;2023-03-30T05:50:16;16.10;;;6.80;;
50379;SDS011;37474;59.468;18.040;2023-03-30T05:52:43;15.13;;;6.43;;
50379;SDS011;37474;59.468;18.040;2023-03-30T05:55:11;16.42;;;7.15;;
50379;SDS011;37474;59.468;18.040;2023-03-30T05:57:45;19.75;;;6.78;;
50379;SDS011;37474;59.468;18.040;2023-03-30T06:00:13;7.53;;;3.60;;
50379;SDS011;37474;59.468;18.040;2023-03-30T06:02:42;12.93;;;4.60;;
50379;SDS011;37474;59.468;18.040;2023-03-30T06:05:14;10.50;;;5.40;;
50379;SDS011;37474;59.468;18.040;2023-03-30T06:07:42;8.47;;;4.50;;
50379;SDS011;37474;59.468;18.040;2023-03-30T06:10:11;5.30;;;2.93;;
50379;SDS011;37474;59.468;18.040;2023-03-30T06:12:43;5.95;;;2.40;;
50379;SDS011;37474;59.468;18.040;2023-03-30T06:15:14;3.70;;;2.33;;
50379;SDS011;37474;59.468;18.040;2023-03-30T06:17:42;7.77;;;2.43;;
50379;SDS011;37474;59.468;18.040;2023-03-30T06:20:14;4.65;;;2.40;;
50379;SDS011;37474;59.468;18.040;2023-03-30T06:22:42;5.68;;;2.67;;
50379;SDS011;37474;59.468;18.040;2023-03-30T06:25:09;8.30;;;2.50;;
50379;SDS011;37474;59.468;18.040;2023-03-30T06:27:42;8.87;;;2.77;;
50379;SDS011;37474;59.468;18.040;2023-03-30T06:30:14;6.53;;;2.57;;
50379;SDS011;37474;59.468;18.040;2023-03-30T06:32:42;8.30;;;2.70;;
50379;SDS011;37474;59.468;18.040;2023-03-30T06:35:12;3.87;;;2.30;;
50379;SDS011;37474;59.468;18.040;2023-03-30T06:37:42;7.67;;;2.60;;
50379;SDS011;37474;59.468;18.040;2023-03-30T06:40:10;8.13;;;3.30;;
50379;SDS011;37474;59.468;18.040;2023-03-30T06:42:42;7.87;;;2.63;;
50379;SDS011;37474;59.468;18.040;2023-03-30T06:45:15;9.60;;;3.27;;
50379;SDS011;37474;59.468;18.040;2023-03-30T06:47:45;11.80;;;3.47;;
50379;SDS011;37474;59.468;18.040;2023-03-30T06:50:13;7.20;;;3.47;;
50379;SDS011;37474;59.468;18.040;2023-03-30T06:52:41;13.17;;;4.37;;
50379;SDS011;37474;59.468;18.040;2023-03-30T06:55:09;7.03;;;3.30;;
50379;SDS011;37474;59.468;18.040;2023-03-30T06:57:37;5.53;;;2.87;;
50379;SDS011;37474;59.468;18.040;2023-03-30T07:00:05;10.00;;;2.83;;
50379;SDS011;37474;59.468;18.040;2023-03-30T07:02:42;5.07;;;2.93;;
50379;SDS011;37474;59.468;18.040;2023-03-30T07:05:13;5.37;;;2.80;;
50379;SDS011;37474;59.468;18.040;2023-03-30T07:07:41;7.93;;;2.90;;
50379;SDS011;37474;59.468;18.040;2023-03-30T07:10:16;4.17;;;2.50;;
50379;SDS011;37474;59.468;18.040;2023-03-30T07:12:44;5.40;;;2.73;;
50379;SDS011;37474;59.468;18.040;2023-03-30T07:15:14;4.20;;;2.40;;
50379;SDS011;37474;59.468;18.040;2023-03-30T07:17:45;3.80;;;2.27;;
50379;SDS011;37474;59.468;18.040;2023-03-30T07:20:13;3.10;;;2.15;;
50379;SDS011;37474;59.468;18.040;2023-03-30T07:22:43;4.23;;;2.20;;
50379;SDS011;37474;59.468;18.040;2023-03-30T07:25:13;2.77;;;2.17;;
50379;SDS011;37474;59.468;18.040;2023-03-30T07:27:41;4.43;;;2.30;;
50379;SDS011;37474;59.468;18.040;2023-03-30T07:30:11;4.57;;;1.87;;
50379;SDS011;37474;59.468;18.040;2023-03-30T07:32:49;5.60;;;1.87;;
50379;SDS011;37474;59.468;18.040;2023-03-30T07:35:17;3.37;;;1.70;;
50379;SDS011;37474;59.468;18.040;2023-03-30T07:37:46;4.85;;;1.60;;
50379;SDS011;37474;59.468;18.040;2023-03-30T07:40:16;2.05;;;1.45;;
50379;SDS011;37474;59.468;18.040;2023-03-30T07:42:47;3.00;;;1.50;;
50379;SDS011;37474;59.468;18.040;2023-03-30T07:45:17;2.13;;;1.43;;
50379;SDS011;37474;59.468;18.040;2023-03-30T07:47:45;6.63;;;1.80;;
50379;SDS011;37474;59.468;18.040;2023-03-30T07:50:15;3.93;;;1.37;;
50379;SDS011;37474;59.468;18.040;2023-03-30T07:52:43;3.28;;;1.20;;
50379;SDS011;37474;59.468;18.040;2023-03-30T07:55:10;3.70;;;1.30;;
50379;SDS011;37474;59.468;18.040;2023-03-30T07:57:41;4.07;;;1.00;;
50379;SDS011;37474;59.468;18.040;2023-03-30T08:00:12;4.80;;;1.10;;
50379;SDS011;37474;59.468;18.040;2023-03-30T08:02:40;3.33;;;1.00;;
50379;SDS011;37474;59.468;18.040;2023-03-30T08:05:12;1.80;;;0.97;;
50379;SDS011;37474;59.468;18.040;2023-03-30T08:07:44;1.33;;;0.90;;
50379;SDS011;37474;59.468;18.040;2023-03-30T08:10:12;1.73;;;0.73;;
50379;SDS011;37474;59.468;18.040;2023-03-30T08:12:40;0.87;;;0.83;;
50379;SDS011;37474;59.468;18.040;2023-03-30T08:15:08;0.80;;;0.60;;
50379;SDS011;37474;59.468;18.040;2023-03-30T08:17:37;1.53;;;0.70;;
50379;SDS011;37474;59.468;18.040;2023-03-30T08:20:05;3.37;;;0.73;;
50379;SDS011;37474;59.468;18.040;2023-03-30T08:22:41;2.27;;;1.00;;
50379;SDS011;37474;59.468;18.040;2023-03-30T08:25:10;3.00;;;1.00;;
50379;SDS011;37474;59.468;18.040;2023-03-30T08:27:38;0.63;;;0.63;;
50379;SDS011;37474;59.468;18.040;2023-03-30T08:30:06;0.70;;;0.57;;
50379;SDS011;37474;59.468;18.040;2023-03-30T08:32:35;1.87;;;0.70;;
50379;SDS011;37474;59.468;18.040;2023-03-30T08:35:03;1.70;;;0.90;;
50379;SDS011;37474;59.468;18.040;2023-03-30T08:37:33;1.83;;;0.80;;
50379;SDS011;37474;59.468;18.040;2023-03-30T08:40:01;3.43;;;0.60;;
50379;SDS011;37474;59.468;18.040;2023-03-30T08:42:38;1.50;;;1.08;;
50379;SDS011;37474;59.468;18.040;2023-03-30T08:45:22;0.70;;;0.60;;
50379;SDS011;37474;59.468;18.040;2023-03-30T08:47:51;6.47;;;3.53;;
50379;SDS011;37474;59.468;18.040;2023-03-30T08:50:23;4.93;;;2.07;;
50379;SDS011;37474;59.468;18.040;2023-03-30T08:53:00;1.90;;;0.77;;
50379;SDS011;37474;59.468;18.040;2023-03-30T08:55:30;2.30;;;0.60;;
50379;SDS011;37474;59.468;18.040;2023-03-30T08:58:04;1.03;;;0.67;;
50379;SDS011;37474;59.468;18.040;2023-03-30T09:00:39;0.77;;;0.60;;
50379;SDS011;37474;59.468;18.040;2023-03-30T09:03:15;2.33;;;0.63;;
50379;SDS011;37474;59.468;18.040;2023-03-30T09:05:47;2.73;;;0.70;;
50379;SDS011;37474;59.468;18.040;2023-03-30T09:08:19;2.07;;;0.90;;
50379;SDS011;37474;59.468;18.040;2023-03-30T09:10:50;1.55;;;0.90;;
50379;SDS011;37474;59.468;18.040;2023-03-30T09:13:25;1.07;;;0.60;;
50379;SDS011;37474;59.468;18.040;2023-03-30T09:15:56;0.97;;;0.40;;
50379;SDS011;37474;59.468;18.040;2023-03-30T09:18:32;2.80;;;0.93;;
50379;SDS011;37474;59.468;18.040;2023-03-30T09:21:02;3.42;;;0.75;;
50379;SDS011;37474;59.468;18.040;2023-03-30T09:23:32;3.00;;;0.60;;
50379;SDS011;37474;59.468;18.040;2023-03-30T09:26:04;1.00;;;0.50;;
50379;SDS011;37474;59.468;18.040;2023-03-30T09:28:42;0.97;;;0.50;;
50379;SDS011;37474;59.468;18.040;2023-03-30T09:31:15;0.90;;;0.40;;
50379;SDS011;37474;59.468;18.040;2023-03-30T09:33:50;2.00;;;0.70;;
50379;SDS011;37474;59.468;18.040;2023-03-30T09:36:26;1.27;;;0.70;;
50379;SDS011;37474;59.468;18.040;2023-03-30T09:39:06;0.73;;;0.50;;
50379;SDS011;37474;59.468;18.040;2023-03-30T09:41:40;0.77;;;0.60;;
50379;SDS011;37474;59.468;18.040;2023-03-30T09:44:21;1.67;;;0.70;;
50379;SDS011;37474;59.468;18.040;2023-03-30T09:46:58;1.60;;;0.50;;
50379;SDS011;37474;59.468;18.040;2023-03-30T09:49:29;0.77;;;0.47;;
50379;SDS011;37474;59.468;18.040;2023-03-30T09:52:07;1.23;;;0.60;;
50379;SDS011;37474;59.468;18.040;2023-03-30T09:54:47;1.27;;;0.50;;
50379;SDS011;37474;59.468;18.040;2023-03-30T09:57:21;1.25;;;0.40;;
50379;SDS011;37474;59.468;18.040;2023-03-30T09:59:53;1.23;;;0.63;;
50379;SDS011;37474;59.468;18.040;2023-03-30T10:02:23;2.78;;;0.80;;
50379;SDS011;37474;59.468;18.040;2023-03-30T10:07:23;1.47;;;0.60;;
50379;SDS011;37474;59.468;18.040;2023-03-30T10:09:55;1.57;;;0.50;;
50379;SDS011;37474;59.468;18.040;2023-03-30T10:12:25;2.53;;;0.70;;
50379;SDS011;37474;59.468;18.040;2023-03-30T10:14:56;1.93;;;0.67;;
50379;SDS011;37474;59.468;18.040;2023-03-30T10:17:27;2.10;;;0.50;;
50379;SDS011;37474;59.468;18.040;2023-03-30T10:20:16;1.70;;;0.60;;
50379;SDS011;37474;59.468;18.040;2023-03-30T10:22:53;1.13;;;0.60;;
50379;SDS011;37474;59.468;18.040;2023-03-30T10:25:23;2.03;;;0.77;;
50379;SDS011;37474;59.468;18.040;2023-03-30T10:27:59;0.60;;;0.60;;
50379;SDS011;37474;59.468;18.040;2023-03-30T10:30:31;0.70;;;0.60;;
50379;SDS011;37474;59.468;18.040;2023-03-30T10:33:01;2.70;;;0.60;;
50379;SDS011;37474;59.468;18.040;2023-03-30T10:35:33;1.15;;;0.50;;
50379;SDS011;37474;59.468;18.040;2023-03-30T10:38:07;0.53;;;0.53;;
50379;SDS011;37474;59.468;18.040;2023-03-30T10:40:39;2.80;;;0.57;;
50379;SDS011;37474;59.468;18.040;2023-03-30T10:43:20;2.43;;;0.67;;
50379;SDS011;37474;59.468;18.040;2023-03-30T10:45:54;1.97;;;0.60;;
50379;SDS011;37474;59.468;18.040;2023-03-30T10:48:47;2.00;;;0.63;;
50379;SDS011;37474;59.468;18.040;2023-03-30T10:51:29;1.17;;;0.50;;
50379;SDS011;37474;59.468;18.040;2023-03-30T10:54:05;0.97;;;0.67;;
50379;SDS011;37474;59.468;18.040;2023-03-30T10:56:40;0.93;;;0.50;;
50379;SDS011;37474;59.468;18.040;2023-03-30T10:59:22;3.70;;;0.70;;
50379;SDS011;37474;59.468;18.040;2023-03-30T11:02:11;2.97;;;0.50;;
50379;SDS011;37474;59.468;18.040;2023-03-30T11:05:03;2.03;;;0.70;;
50379;SDS011;37474;59.468;18.040;2023-03-30T11:07:39;1.77;;;0.60;;
50379;SDS011;37474;59.468;18.040;2023-03-30T11:10:13;1.43;;;0.60;;
50379;SDS011;37474;59.468;18.040;2023-03-30T11:12:46;1.37;;;0.57;;
50379;SDS011;37474;59.468;18.040;2023-03-30T11:15:20;1.33;;;0.70;;
50379;SDS011;37474;59.468;18.040;2023-03-30T11:17:56;1.23;;;0.67;;
50379;SDS011;37474;59.468;18.040;2023-03-30T11:20:34;1.27;;;0.73;;
50379;SDS011;37474;59.468;18.040;2023-03-30T11:23:10;1.17;;;0.70;;
50379;SDS011;37474;59.468;18.040;2023-03-30T11:25:51;0.80;;;0.60;;
50379;SDS011;37474;59.468;18.040;2023-03-30T11:28:33;0.80;;;0.70;;
50379;SDS011;37474;59.468;18.040;2023-03-30T11:31:12;1.50;;;0.70;;
50379;SDS011;37474;59.468;18.040;2023-03-30T11:33:52;2.60;;;0.73;;
50379;SDS011;37474;59.468;18.040;2023-03-30T11:36:25;0.70;;;0.70;;
50379;SDS011;37474;59.468;18.040;2023-03-30T11:38:59;1.00;;;0.67;;
50379;SDS011;37474;59.468;18.040;2023-03-30T11:41:34;1.50;;;0.60;;
50379;SDS011;37474;59.468;18.040;2023-03-30T11:44:07;0.83;;;0.60;;
50379;SDS011;37474;59.468;18.040;2023-03-30T11:46:39;1.60;;;0.67;;
50379;SDS011;37474;59.468;18.040;2023-03-30T11:49:20;1.47;;;0.70;;
50379;SDS011;37474;59.468;18.040;2023-03-30T11:52:07;2.77;;;0.70;;
50379;SDS011;37474;59.468;18.040;2023-03-30T11:55:10;2.00;;;0.70;;
50379;SDS011;37474;59.468;18.040;2023-03-30T11:57:53;0.67;;;0.47;;
50379;SDS011;37474;59.468;18.040;2023-03-30T12:00:36;0.63;;;0.50;;
50379;SDS011;37474;59.468;18.040;2023-03-30T12:03:16;1.83;;;0.70;;
50379;SDS011;37474;59.468;18.040;2023-03-30T12:06:03;1.63;;;0.63;;
50379;SDS011;37474;59.468;18.040;2023-03-30T12:08:51;2.03;;;0.70;;
50379;SDS011;37474;59.468;18.040;2023-03-30T12:11:30;4.47;;;0.90;;
50379;SDS011;37474;59.468;18.040;2023-03-30T12:14:11;1.00;;;0.73;;
50379;SDS011;37474;59.468;18.040;2023-03-30T12:16:58;1.60;;;0.77;;
50379;SDS011;37474;59.468;18.040;2023-03-30T12:19:36;2.27;;;0.80;;
50379;SDS011;37474;59.468;18.040;2023-03-30T12:22:24;2.27;;;0.90;;
50379;SDS011;37474;59.468;18.040;2023-03-30T12:25:00;1.83;;;0.73;;
50379;SDS011;37474;59.468;18.040;2023-03-30T12:27:56;1.57;;;0.87;;
50379;SDS011;37474;59.468;18.040;2023-03-30T12:30:26;2.33;;;0.87;;
50379;SDS011;37474;59.468;18.040;2023-03-30T12:33:01;1.20;;;0.70;;
50379;SDS011;37474;59.468;18.040;2023-03-30T12:35:54;1.70;;;0.70;;
50379;SDS011;37474;59.468;18.040;2023-03-30T12:38:40;2.20;;;0.60;;
50379;SDS011;37474;59.468;18.040;2023-03-30T12:41:11;1.10;;;0.70;;
50379;SDS011;37474;59.468;18.040;2023-03-30T12:43:46;1.40;;;0.63;;
50379;SDS011;37474;59.468;18.040;2023-03-30T12:46:26;1.53;;;0.80;;
50379;SDS011;37474;59.468;18.040;2023-03-30T12:49:08;1.27;;;0.63;;
50379;SDS011;37474;59.468;18.040;2023-03-30T12:51:52;1.10;;;0.70;;
50379;SDS011;37474;59.468;18.040;2023-03-30T12:54:40;1.67;;;0.70;;
50379;SDS011;37474;59.468;18.040;2023-03-30T12:57:35;1.67;;;1.00;;
50379;SDS011;37474;59.468;18.040;2023-03-30T13:00:24;1.03;;;0.90;;
50379;SDS011;37474;59.468;18.040;2023-03-30T13:03:23;2.33;;;1.13;;
50379;SDS011;37474;59.468;18.040;2023-03-30T13:06:17;1.47;;;0.70;;
50379;SDS011;37474;59.468;18.040;2023-03-30T13:09:14;1.23;;;0.77;;
50379;SDS011;37474;59.468;18.040;2023-03-30T13:15:02;1.48;;;0.75;;
50379;SDS011;37474;59.468;18.040;2023-03-30T13:17:47;1.03;;;0.60;;
50379;SDS011;37474;59.468;18.040;2023-03-30T13:20:28;0.83;;;0.70;;
50379;SDS011;37474;59.468;18.040;2023-03-30T13:23:00;2.27;;;0.90;;
50379;SDS011;37474;59.468;18.040;2023-03-30T13:25:36;2.63;;;0.77;;
50379;SDS011;37474;59.468;18.040;2023-03-30T13:28:31;2.57;;;0.80;;
50379;SDS011;37474;59.468;18.040;2023-03-30T13:31:31;1.77;;;0.73;;
50379;SDS011;37474;59.468;18.040;2023-03-30T13:34:12;1.70;;;0.80;;
50379;SDS011;37474;59.468;18.040;2023-03-30T13:36:51;1.38;;;0.80;;
50379;SDS011;37474;59.468;18.040;2023-03-30T13:39:28;2.13;;;0.70;;
50379;SDS011;37474;59.468;18.040;2023-03-30T13:42:14;1.70;;;0.80;;
50379;SDS011;37474;59.468;18.040;2023-03-30T13:44:56;4.13;;;0.70;;
50379;SDS011;37474;59.468;18.040;2023-03-30T13:47:32;1.53;;;0.60;;
50379;SDS011;37474;59.468;18.040;2023-03-30T13:50:16;1.63;;;0.80;;
50379;SDS011;37474;59.468;18.040;2023-03-30T13:52:52;1.67;;;0.90;;
50379;SDS011;37474;59.468;18.040;2023-03-30T13:55:27;1.70;;;0.70;;
50379;SDS011;37474;59.468;18.040;2023-03-30T13:57:59;1.77;;;0.67;;
50379;SDS011;37474;59.468;18.040;2023-03-30T14:00:34;2.00;;;0.80;;
50379;SDS011;37474;59.468;18.040;2023-03-30T14:03:31;0.90;;;0.60;;
50379;SDS011;37474;59.468;18.040;2023-03-30T14:06:18;0.93;;;0.90;;
50379;SDS011;37474;59.468;18.040;2023-03-30T14:08:48;2.27;;;0.83;;
50379;SDS011;37474;59.468;18.040;2023-03-30T14:11:30;0.97;;;0.70;;
50379;SDS011;37474;59.468;18.040;2023-03-30T14:14:01;2.50;;;1.53;;
50379;SDS011;37474;59.468;18.040;2023-03-30T14:16:33;1.50;;;0.73;;
50379;SDS011;37474;59.468;18.040;2023-03-30T14:19:05;4.27;;;1.00;;
50379;SDS011;37474;59.468;18.040;2023-03-30T14:21:41;2.03;;;0.90;;
50379;SDS011;37474;59.468;18.040;2023-03-30T14:24:11;1.93;;;0.70;;
50379;SDS011;37474;59.468;18.040;2023-03-30T14:26:51;1.90;;;0.87;;
50379;SDS011;37474;59.468;18.040;2023-03-30T14:29:20;2.17;;;1.00;;
50379;SDS011;37474;59.468;18.040;2023-03-30T14:31:59;2.53;;;1.00;;
50379;SDS011;37474;59.468;18.040;2023-03-30T14:34:35;0.90;;;0.80;;
50379;SDS011;37474;59.468;18.040;2023-03-30T14:37:04;2.00;;;0.80;;
50379;SDS011;37474;59.468;18.040;2023-03-30T14:39:36;3.20;;;0.80;;
50379;SDS011;37474;59.468;18.040;2023-03-30T14:42:13;2.07;;;1.00;;
50379;SDS011;37474;59.468;18.040;2023-03-30T14:44:46;2.67;;;0.90;;
50379;SDS011;37474;59.468;18.040;2023-03-30T14:47:18;1.13;;;0.90;;
50379;SDS011;37474;59.468;18.040;2023-03-30T14:49:49;2.33;;;1.10;;
50379;SDS011;37474;59.468;18.040;2023-03-30T14:52:21;1.60;;;0.90;;
50379;SDS011;37474;59.468;18.040;2023-03-30T14:54:53;1.00;;;0.90;;
50379;SDS011;37474;59.468;18.040;2023-03-30T14:57:36;1.48;;;1.10;;
50379;SDS011;37474;59.468;18.040;2023-03-30T15:00:10;1.60;;;0.90;;
50379;SDS011;37474;59.468;18.040;2023-03-30T15:02:48;2.03;;;0.90;;
50379;SDS011;37474;59.468;18.040;2023-03-30T15:05:21;1.33;;;1.17;;
50379;SDS011;37474;59.468;18.040;2023-03-30T15:07:51;1.88;;;1.00;;
50379;SDS011;37474;59.468;18.040;2023-03-30T15:10:22;2.30;;;0.90;;
50379;SDS011;37474;59.468;18.040;2023-03-30T15:12:54;3.90;;;1.10;;
50379;SDS011;37474;59.468;18.040;2023-03-30T15:15:24;1.40;;;0.95;;
50379;SDS011;37474;59.468;18.040;2023-03-30T15:18:00;2.23;;;0.90;;
50379;SDS011;37474;59.468;18.040;2023-03-30T15:20:29;1.37;;;0.80;;
50379;SDS011;37474;59.468;18.040;2023-03-30T15:22:58;2.13;;;0.90;;
50379;SDS011;37474;59.468;18.040;2023-03-30T15:25:27;1.63;;;0.90;;
50379;SDS011;37474;59.468;18.040;2023-03-30T15:27:59;3.03;;;0.90;;
50379;SDS011;37474;59.468;18.040;2023-03-30T15:30:31;3.53;;;1.00;;
50379;SDS011;37474;59.468;18.040;2023-03-30T15:33:03;1.40;;;1.00;;